<?xml version="1.0" encoding="UTF-8" standalone="no" ?>
<gpx xmlns="http://www.topografix.com/GPX/1/1" xmlns:xsi="http://www.w3.org/2001/XMLSchema-instance" xsi:schemaLocation="http://www.topografix.com/GPX/1/1 http://www.topografix.com/GPX/1/1/gpx.xsd" version="1.1" creator="VisuGPX - https://www.visugpx.com">
  <metadata>
    <name>Vol au-dessus d'un nid de Biertois</name>
    <desc><![CDATA[16 avr. 2021 à 16:40:39

]]></desc>
  </metadata>
  <trk>
    <name><![CDATA[16 avr. 2021 à 16:40:39]]></name>
    <cmt><![CDATA[16 avr. 2021 à 16:40:39]]></cmt>
    <trkseg>
      <trkpt lat="43.00709" lon="1.10597">
        <ele>410</ele>
        <time>2021-04-16T14:40:40Z</time>
      </trkpt>
      <trkpt lat="43.00715" lon="1.10603">
        <ele>411</ele>
        <time>2021-04-16T14:40:45Z</time>
      </trkpt>
      <trkpt lat="43.00719" lon="1.10604">
        <ele>411</ele>
        <time>2021-04-16T14:40:48Z</time>
      </trkpt>
      <trkpt lat="43.00736" lon="1.10602">
        <ele>411</ele>
        <time>2021-04-16T14:41:05Z</time>
      </trkpt>
      <trkpt lat="43.0075" lon="1.10596">
        <ele>411</ele>
        <time>2021-04-16T14:41:15Z</time>
      </trkpt>
      <trkpt lat="43.00755" lon="1.10593">
        <ele>410</ele>
        <time>2021-04-16T14:41:18Z</time>
      </trkpt>
      <trkpt lat="43.00774" lon="1.10569">
        <ele>410</ele>
        <time>2021-04-16T14:41:38Z</time>
      </trkpt>
      <trkpt lat="43.00793" lon="1.10518">
        <ele>411</ele>
        <time>2021-04-16T14:42:10Z</time>
      </trkpt>
      <trkpt lat="43.00803" lon="1.10494">
        <ele>411</ele>
        <time>2021-04-16T14:42:26Z</time>
      </trkpt>
      <trkpt lat="43.00805" lon="1.10481">
        <ele>411</ele>
        <time>2021-04-16T14:42:35Z</time>
      </trkpt>
      <trkpt lat="43.00817" lon="1.10458">
        <ele>411</ele>
        <time>2021-04-16T14:42:52Z</time>
      </trkpt>
      <trkpt lat="43.00822" lon="1.10453">
        <ele>411</ele>
        <time>2021-04-16T14:42:58Z</time>
      </trkpt>
      <trkpt lat="43.00825" lon="1.10447">
        <ele>411</ele>
        <time>2021-04-16T14:43:02Z</time>
      </trkpt>
      <trkpt lat="43.00826" lon="1.10441">
        <ele>411</ele>
        <time>2021-04-16T14:43:05Z</time>
      </trkpt>
      <trkpt lat="43.00827" lon="1.10433">
        <ele>411</ele>
        <time>2021-04-16T14:43:09Z</time>
      </trkpt>
      <trkpt lat="43.00828" lon="1.10411">
        <ele>411</ele>
        <time>2021-04-16T14:43:21Z</time>
      </trkpt>
      <trkpt lat="43.00829" lon="1.10405">
        <ele>411</ele>
        <time>2021-04-16T14:43:26Z</time>
      </trkpt>
      <trkpt lat="43.00824" lon="1.10404">
        <ele>408</ele>
        <time>2021-04-16T14:52:21Z</time>
      </trkpt>
      <trkpt lat="43.00818" lon="1.10405">
        <ele>408</ele>
        <time>2021-04-16T14:52:26Z</time>
      </trkpt>
      <trkpt lat="43.0081" lon="1.10402">
        <ele>408</ele>
        <time>2021-04-16T14:52:31Z</time>
      </trkpt>
      <trkpt lat="43.00807" lon="1.10396">
        <ele>408</ele>
        <time>2021-04-16T14:52:34Z</time>
      </trkpt>
      <trkpt lat="43.00805" lon="1.1039">
        <ele>409</ele>
        <time>2021-04-16T14:52:37Z</time>
      </trkpt>
      <trkpt lat="43.00803" lon="1.10384">
        <ele>409</ele>
        <time>2021-04-16T14:52:42Z</time>
      </trkpt>
      <trkpt lat="43.008" lon="1.10376">
        <ele>407</ele>
        <time>2021-04-16T14:54:30Z</time>
      </trkpt>
      <trkpt lat="43.00784" lon="1.10348">
        <ele>407</ele>
        <time>2021-04-16T14:54:37Z</time>
      </trkpt>
      <trkpt lat="43.00776" lon="1.1034">
        <ele>407</ele>
        <time>2021-04-16T14:54:39Z</time>
      </trkpt>
      <trkpt lat="43.00771" lon="1.10337">
        <ele>407</ele>
        <time>2021-04-16T14:54:40Z</time>
      </trkpt>
      <trkpt lat="43.00766" lon="1.10336">
        <ele>407</ele>
        <time>2021-04-16T14:54:41Z</time>
      </trkpt>
      <trkpt lat="43.00747" lon="1.10342">
        <ele>407</ele>
        <time>2021-04-16T14:54:44Z</time>
      </trkpt>
      <trkpt lat="43.00462" lon="1.10543">
        <ele>411</ele>
        <time>2021-04-16T14:55:15Z</time>
      </trkpt>
      <trkpt lat="43.00381" lon="1.10602">
        <ele>412</ele>
        <time>2021-04-16T14:55:26Z</time>
      </trkpt>
      <trkpt lat="43.00361" lon="1.10636">
        <ele>412</ele>
        <time>2021-04-16T14:55:33Z</time>
      </trkpt>
      <trkpt lat="43.00355" lon="1.10639">
        <ele>412</ele>
        <time>2021-04-16T14:55:35Z</time>
      </trkpt>
      <trkpt lat="43.0035" lon="1.1064">
        <ele>412</ele>
        <time>2021-04-16T14:55:37Z</time>
      </trkpt>
      <trkpt lat="43.00347" lon="1.10633">
        <ele>412</ele>
        <time>2021-04-16T14:55:40Z</time>
      </trkpt>
      <trkpt lat="43.00345" lon="1.10627">
        <ele>412</ele>
        <time>2021-04-16T14:55:43Z</time>
      </trkpt>
      <trkpt lat="43.00348" lon="1.10621">
        <ele>413</ele>
        <time>2021-04-16T14:55:48Z</time>
      </trkpt>
      <trkpt lat="43.00351" lon="1.10617">
        <ele>413</ele>
        <time>2021-04-16T14:55:52Z</time>
      </trkpt>
      <trkpt lat="43.00354" lon="1.1061">
        <ele>413</ele>
        <time>2021-04-16T14:55:56Z</time>
      </trkpt>
      <trkpt lat="43.00359" lon="1.10609">
        <ele>412</ele>
        <time>2021-04-16T14:57:12Z</time>
      </trkpt>
      <trkpt lat="43.00931" lon="1.10208">
        <ele>423</ele>
        <time>2021-04-16T14:57:43Z</time>
      </trkpt>
      <trkpt lat="43.01732" lon="1.09573">
        <ele>513</ele>
        <time>2021-04-16T14:58:14Z</time>
      </trkpt>
      <trkpt lat="43.01926" lon="1.09399">
        <ele>532</ele>
        <time>2021-04-16T14:58:22Z</time>
      </trkpt>
      <trkpt lat="43.02041" lon="1.09358">
        <ele>540</ele>
        <time>2021-04-16T14:58:26Z</time>
      </trkpt>
      <trkpt lat="43.02189" lon="1.09354">
        <ele>557</ele>
        <time>2021-04-16T14:58:31Z</time>
      </trkpt>
      <trkpt lat="43.02249" lon="1.0937">
        <ele>564</ele>
        <time>2021-04-16T14:58:33Z</time>
      </trkpt>
      <trkpt lat="43.02278" lon="1.09379">
        <ele>564</ele>
        <time>2021-04-16T14:58:34Z</time>
      </trkpt>
      <trkpt lat="43.03183" lon="1.09619">
        <ele>640</ele>
        <time>2021-04-16T14:59:04Z</time>
      </trkpt>
      <trkpt lat="43.04112" lon="1.09806">
        <ele>713</ele>
        <time>2021-04-16T14:59:34Z</time>
      </trkpt>
      <trkpt lat="43.04239" lon="1.09858">
        <ele>723</ele>
        <time>2021-04-16T14:59:38Z</time>
      </trkpt>
      <trkpt lat="43.04327" lon="1.09928">
        <ele>732</ele>
        <time>2021-04-16T14:59:41Z</time>
      </trkpt>
      <trkpt lat="43.04455" lon="1.10096">
        <ele>750</ele>
        <time>2021-04-16T14:59:46Z</time>
      </trkpt>
      <trkpt lat="43.04548" lon="1.1032">
        <ele>768</ele>
        <time>2021-04-16T14:59:51Z</time>
      </trkpt>
      <trkpt lat="43.04598" lon="1.10582">
        <ele>784</ele>
        <time>2021-04-16T14:59:56Z</time>
      </trkpt>
      <trkpt lat="43.04608" lon="1.10866">
        <ele>787</ele>
        <time>2021-04-16T15:00:01Z</time>
      </trkpt>
      <trkpt lat="43.04577" lon="1.11101">
        <ele>788</ele>
        <time>2021-04-16T15:00:05Z</time>
      </trkpt>
      <trkpt lat="43.0454" lon="1.11215">
        <ele>790</ele>
        <time>2021-04-16T15:00:07Z</time>
      </trkpt>
      <trkpt lat="43.04401" lon="1.11463">
        <ele>804</ele>
        <time>2021-04-16T15:00:12Z</time>
      </trkpt>
      <trkpt lat="43.03408" lon="1.12834">
        <ele>931</ele>
        <time>2021-04-16T15:00:43Z</time>
      </trkpt>
      <trkpt lat="43.0222" lon="1.14536">
        <ele>901</ele>
        <time>2021-04-16T15:01:14Z</time>
      </trkpt>
      <trkpt lat="43.01127" lon="1.16299">
        <ele>867</ele>
        <time>2021-04-16T15:01:44Z</time>
      </trkpt>
      <trkpt lat="43.00225" lon="1.18239">
        <ele>909</ele>
        <time>2021-04-16T15:02:15Z</time>
      </trkpt>
      <trkpt lat="42.99875" lon="1.19148">
        <ele>950</ele>
        <time>2021-04-16T15:02:29Z</time>
      </trkpt>
      <trkpt lat="42.99438" lon="1.21201">
        <ele>992</ele>
        <time>2021-04-16T15:03:00Z</time>
      </trkpt>
      <trkpt lat="42.99143" lon="1.23047">
        <ele>1033</ele>
        <time>2021-04-16T15:03:31Z</time>
      </trkpt>
      <trkpt lat="42.99048" lon="1.23444">
        <ele>1048</ele>
        <time>2021-04-16T15:03:38Z</time>
      </trkpt>
      <trkpt lat="42.98907" lon="1.23763">
        <ele>1054</ele>
        <time>2021-04-16T15:03:44Z</time>
      </trkpt>
      <trkpt lat="42.98712" lon="1.24027">
        <ele>1067</ele>
        <time>2021-04-16T15:03:50Z</time>
      </trkpt>
      <trkpt lat="42.98505" lon="1.24176">
        <ele>1085</ele>
        <time>2021-04-16T15:03:55Z</time>
      </trkpt>
      <trkpt lat="42.97763" lon="1.24491">
        <ele>1094</ele>
        <time>2021-04-16T15:04:11Z</time>
      </trkpt>
      <trkpt lat="42.97544" lon="1.24707">
        <ele>1090</ele>
        <time>2021-04-16T15:04:16Z</time>
      </trkpt>
      <trkpt lat="42.96407" lon="1.26331">
        <ele>1136</ele>
        <time>2021-04-16T15:04:47Z</time>
      </trkpt>
      <trkpt lat="42.96142" lon="1.2689">
        <ele>1177</ele>
        <time>2021-04-16T15:04:58Z</time>
      </trkpt>
      <trkpt lat="42.95869" lon="1.2799">
        <ele>1233</ele>
        <time>2021-04-16T15:05:17Z</time>
      </trkpt>
      <trkpt lat="42.95682" lon="1.29797">
        <ele>1332</ele>
        <time>2021-04-16T15:05:48Z</time>
      </trkpt>
      <trkpt lat="42.95608" lon="1.3013">
        <ele>1349</ele>
        <time>2021-04-16T15:05:54Z</time>
      </trkpt>
      <trkpt lat="42.95453" lon="1.305">
        <ele>1362</ele>
        <time>2021-04-16T15:06:01Z</time>
      </trkpt>
      <trkpt lat="42.94777" lon="1.31594">
        <ele>1425</ele>
        <time>2021-04-16T15:06:25Z</time>
      </trkpt>
      <trkpt lat="42.94606" lon="1.31774">
        <ele>1437</ele>
        <time>2021-04-16T15:06:30Z</time>
      </trkpt>
      <trkpt lat="42.9445" lon="1.31878">
        <ele>1445</ele>
        <time>2021-04-16T15:06:34Z</time>
      </trkpt>
      <trkpt lat="42.94409" lon="1.31897">
        <ele>1445</ele>
        <time>2021-04-16T15:06:35Z</time>
      </trkpt>
      <trkpt lat="42.9419" lon="1.3195">
        <ele>1458</ele>
        <time>2021-04-16T15:06:40Z</time>
      </trkpt>
      <trkpt lat="42.93955" lon="1.31939">
        <ele>1469</ele>
        <time>2021-04-16T15:06:45Z</time>
      </trkpt>
      <trkpt lat="42.93764" lon="1.31881">
        <ele>1480</ele>
        <time>2021-04-16T15:06:49Z</time>
      </trkpt>
      <trkpt lat="42.93116" lon="1.31437">
        <ele>1489</ele>
        <time>2021-04-16T15:07:03Z</time>
      </trkpt>
      <trkpt lat="42.92607" lon="1.31322">
        <ele>1473</ele>
        <time>2021-04-16T15:07:12Z</time>
      </trkpt>
      <trkpt lat="42.91314" lon="1.31196">
        <ele>1414</ele>
        <time>2021-04-16T15:07:35Z</time>
      </trkpt>
      <trkpt lat="42.91206" lon="1.31221">
        <ele>1407</ele>
        <time>2021-04-16T15:07:37Z</time>
      </trkpt>
      <trkpt lat="42.91158" lon="1.31259">
        <ele>1405</ele>
        <time>2021-04-16T15:07:38Z</time>
      </trkpt>
      <trkpt lat="42.91115" lon="1.31301">
        <ele>1403</ele>
        <time>2021-04-16T15:07:39Z</time>
      </trkpt>
      <trkpt lat="42.91047" lon="1.31412">
        <ele>1402</ele>
        <time>2021-04-16T15:07:41Z</time>
      </trkpt>
      <trkpt lat="42.90926" lon="1.31726">
        <ele>1400</ele>
        <time>2021-04-16T15:07:46Z</time>
      </trkpt>
      <trkpt lat="42.90764" lon="1.31992">
        <ele>1414</ele>
        <time>2021-04-16T15:07:51Z</time>
      </trkpt>
      <trkpt lat="42.90689" lon="1.3208">
        <ele>1419</ele>
        <time>2021-04-16T15:07:53Z</time>
      </trkpt>
      <trkpt lat="42.90509" lon="1.32183">
        <ele>1430</ele>
        <time>2021-04-16T15:07:57Z</time>
      </trkpt>
      <trkpt lat="42.90462" lon="1.32199">
        <ele>1433</ele>
        <time>2021-04-16T15:07:58Z</time>
      </trkpt>
      <trkpt lat="42.90317" lon="1.32217">
        <ele>1434</ele>
        <time>2021-04-16T15:08:01Z</time>
      </trkpt>
      <trkpt lat="42.90122" lon="1.32188">
        <ele>1429</ele>
        <time>2021-04-16T15:08:05Z</time>
      </trkpt>
      <trkpt lat="42.89803" lon="1.32039">
        <ele>1436</ele>
        <time>2021-04-16T15:08:12Z</time>
      </trkpt>
      <trkpt lat="42.89551" lon="1.31844">
        <ele>1437</ele>
        <time>2021-04-16T15:08:18Z</time>
      </trkpt>
      <trkpt lat="42.89409" lon="1.31662">
        <ele>1433</ele>
        <time>2021-04-16T15:08:22Z</time>
      </trkpt>
      <trkpt lat="42.89099" lon="1.31079">
        <ele>1416</ele>
        <time>2021-04-16T15:08:33Z</time>
      </trkpt>
      <trkpt lat="42.8898" lon="1.30731">
        <ele>1417</ele>
        <time>2021-04-16T15:08:39Z</time>
      </trkpt>
      <trkpt lat="42.8894" lon="1.3049">
        <ele>1418</ele>
        <time>2021-04-16T15:08:43Z</time>
      </trkpt>
      <trkpt lat="42.88942" lon="1.30307">
        <ele>1411</ele>
        <time>2021-04-16T15:08:46Z</time>
      </trkpt>
      <trkpt lat="42.88959" lon="1.30188">
        <ele>1405</ele>
        <time>2021-04-16T15:08:48Z</time>
      </trkpt>
      <trkpt lat="42.88995" lon="1.30078">
        <ele>1398</ele>
        <time>2021-04-16T15:08:50Z</time>
      </trkpt>
      <trkpt lat="42.89049" lon="1.29982">
        <ele>1389</ele>
        <time>2021-04-16T15:08:52Z</time>
      </trkpt>
      <trkpt lat="42.8912" lon="1.29903">
        <ele>1379</ele>
        <time>2021-04-16T15:08:54Z</time>
      </trkpt>
      <trkpt lat="42.89159" lon="1.2987">
        <ele>1374</ele>
        <time>2021-04-16T15:08:55Z</time>
      </trkpt>
      <trkpt lat="42.89201" lon="1.29843">
        <ele>1374</ele>
        <time>2021-04-16T15:08:56Z</time>
      </trkpt>
      <trkpt lat="42.89425" lon="1.29762">
        <ele>1350</ele>
        <time>2021-04-16T15:09:01Z</time>
      </trkpt>
      <trkpt lat="42.89567" lon="1.29765">
        <ele>1337</ele>
        <time>2021-04-16T15:09:04Z</time>
      </trkpt>
      <trkpt lat="42.89709" lon="1.29807">
        <ele>1324</ele>
        <time>2021-04-16T15:09:07Z</time>
      </trkpt>
      <trkpt lat="42.89889" lon="1.29917">
        <ele>1309</ele>
        <time>2021-04-16T15:09:11Z</time>
      </trkpt>
      <trkpt lat="42.90009" lon="1.30036">
        <ele>1298</ele>
        <time>2021-04-16T15:09:14Z</time>
      </trkpt>
      <trkpt lat="42.90144" lon="1.3024">
        <ele>1287</ele>
        <time>2021-04-16T15:09:18Z</time>
      </trkpt>
      <trkpt lat="42.90223" lon="1.30425">
        <ele>1280</ele>
        <time>2021-04-16T15:09:21Z</time>
      </trkpt>
      <trkpt lat="42.90305" lon="1.3071">
        <ele>1272</ele>
        <time>2021-04-16T15:09:25Z</time>
      </trkpt>
      <trkpt lat="42.90366" lon="1.31241">
        <ele>1273</ele>
        <time>2021-04-16T15:09:32Z</time>
      </trkpt>
      <trkpt lat="42.90393" lon="1.31677">
        <ele>1287</ele>
        <time>2021-04-16T15:09:38Z</time>
      </trkpt>
      <trkpt lat="42.90405" lon="1.32498">
        <ele>1391</ele>
        <time>2021-04-16T15:09:52Z</time>
      </trkpt>
      <trkpt lat="42.90507" lon="1.33579">
        <ele>1391</ele>
        <time>2021-04-16T15:10:09Z</time>
      </trkpt>
      <trkpt lat="42.90445" lon="1.33834">
        <ele>1394</ele>
        <time>2021-04-16T15:10:13Z</time>
      </trkpt>
      <trkpt lat="42.90425" lon="1.33896">
        <ele>1395</ele>
        <time>2021-04-16T15:10:14Z</time>
      </trkpt>
      <trkpt lat="42.90316" lon="1.34045">
        <ele>1392</ele>
        <time>2021-04-16T15:10:17Z</time>
      </trkpt>
      <trkpt lat="42.9023" lon="1.34126">
        <ele>1388</ele>
        <time>2021-04-16T15:10:19Z</time>
      </trkpt>
      <trkpt lat="42.90181" lon="1.34153">
        <ele>1385</ele>
        <time>2021-04-16T15:10:20Z</time>
      </trkpt>
      <trkpt lat="42.90132" lon="1.34177">
        <ele>1385</ele>
        <time>2021-04-16T15:10:21Z</time>
      </trkpt>
      <trkpt lat="42.89985" lon="1.34232">
        <ele>1379</ele>
        <time>2021-04-16T15:10:24Z</time>
      </trkpt>
      <trkpt lat="42.89823" lon="1.34206">
        <ele>1376</ele>
        <time>2021-04-16T15:10:27Z</time>
      </trkpt>
      <trkpt lat="42.89626" lon="1.34131">
        <ele>1377</ele>
        <time>2021-04-16T15:10:31Z</time>
      </trkpt>
      <trkpt lat="42.89309" lon="1.33916">
        <ele>1367</ele>
        <time>2021-04-16T15:10:38Z</time>
      </trkpt>
      <trkpt lat="42.88901" lon="1.33528">
        <ele>1361</ele>
        <time>2021-04-16T15:10:48Z</time>
      </trkpt>
      <trkpt lat="42.8884" lon="1.33432">
        <ele>1361</ele>
        <time>2021-04-16T15:10:50Z</time>
      </trkpt>
      <trkpt lat="42.88783" lon="1.33273">
        <ele>1366</ele>
        <time>2021-04-16T15:10:53Z</time>
      </trkpt>
      <trkpt lat="42.8877" lon="1.33218">
        <ele>1369</ele>
        <time>2021-04-16T15:10:54Z</time>
      </trkpt>
      <trkpt lat="42.88797" lon="1.33057">
        <ele>1379</ele>
        <time>2021-04-16T15:10:57Z</time>
      </trkpt>
      <trkpt lat="42.88808" lon="1.33004">
        <ele>1382</ele>
        <time>2021-04-16T15:10:58Z</time>
      </trkpt>
      <trkpt lat="42.8893" lon="1.32769">
        <ele>1381</ele>
        <time>2021-04-16T15:11:03Z</time>
      </trkpt>
      <trkpt lat="42.89348" lon="1.32026">
        <ele>1395</ele>
        <time>2021-04-16T15:11:20Z</time>
      </trkpt>
      <trkpt lat="42.89958" lon="1.30402">
        <ele>1466</ele>
        <time>2021-04-16T15:11:51Z</time>
      </trkpt>
      <trkpt lat="42.90506" lon="1.28727">
        <ele>1444</ele>
        <time>2021-04-16T15:12:22Z</time>
      </trkpt>
      <trkpt lat="42.90871" lon="1.27156">
        <ele>1383</ele>
        <time>2021-04-16T15:12:50Z</time>
      </trkpt>
      <trkpt lat="42.91321" lon="1.25386">
        <ele>1365</ele>
        <time>2021-04-16T15:13:21Z</time>
      </trkpt>
      <trkpt lat="42.91512" lon="1.24616">
        <ele>1320</ele>
        <time>2021-04-16T15:13:35Z</time>
      </trkpt>
      <trkpt lat="42.91653" lon="1.22742">
        <ele>1276</ele>
        <time>2021-04-16T15:14:06Z</time>
      </trkpt>
      <trkpt lat="42.91657" lon="1.22681">
        <ele>1276</ele>
        <time>2021-04-16T15:14:07Z</time>
      </trkpt>
      <trkpt lat="42.91711" lon="1.21684">
        <ele>1253</ele>
        <time>2021-04-16T15:14:24Z</time>
      </trkpt>
      <trkpt lat="42.91868" lon="1.20986">
        <ele>1250</ele>
        <time>2021-04-16T15:14:36Z</time>
      </trkpt>
      <trkpt lat="42.92046" lon="1.20593">
        <ele>1248</ele>
        <time>2021-04-16T15:14:44Z</time>
      </trkpt>
      <trkpt lat="42.92974" lon="1.19252">
        <ele>1217</ele>
        <time>2021-04-16T15:15:15Z</time>
      </trkpt>
      <trkpt lat="42.93983" lon="1.17906">
        <ele>1163</ele>
        <time>2021-04-16T15:15:46Z</time>
      </trkpt>
      <trkpt lat="42.95064" lon="1.16471">
        <ele>1075</ele>
        <time>2021-04-16T15:16:17Z</time>
      </trkpt>
      <trkpt lat="42.96021" lon="1.14845">
        <ele>971</ele>
        <time>2021-04-16T15:16:48Z</time>
      </trkpt>
      <trkpt lat="42.96958" lon="1.13367">
        <ele>891</ele>
        <time>2021-04-16T15:17:19Z</time>
      </trkpt>
      <trkpt lat="42.97126" lon="1.1315">
        <ele>871</ele>
        <time>2021-04-16T15:17:24Z</time>
      </trkpt>
      <trkpt lat="42.97161" lon="1.13108">
        <ele>871</ele>
        <time>2021-04-16T15:17:25Z</time>
      </trkpt>
      <trkpt lat="42.98035" lon="1.12237">
        <ele>733</ele>
        <time>2021-04-16T15:17:49Z</time>
      </trkpt>
      <trkpt lat="42.98181" lon="1.12126">
        <ele>716</ele>
        <time>2021-04-16T15:17:53Z</time>
      </trkpt>
      <trkpt lat="42.98218" lon="1.12099">
        <ele>716</ele>
        <time>2021-04-16T15:17:54Z</time>
      </trkpt>
      <trkpt lat="42.99262" lon="1.11374">
        <ele>568</ele>
        <time>2021-04-16T15:18:25Z</time>
      </trkpt>
      <trkpt lat="43.00142" lon="1.10767">
        <ele>456</ele>
        <time>2021-04-16T15:18:56Z</time>
      </trkpt>
      <trkpt lat="43.00751" lon="1.10338">
        <ele>396</ele>
        <time>2021-04-16T15:19:27Z</time>
      </trkpt>
      <trkpt lat="43.00758" lon="1.10335">
        <ele>396</ele>
        <time>2021-04-16T15:19:28Z</time>
      </trkpt>
      <trkpt lat="43.00765" lon="1.10333">
        <ele>396</ele>
        <time>2021-04-16T15:19:29Z</time>
      </trkpt>
      <trkpt lat="43.00777" lon="1.10335">
        <ele>395</ele>
        <time>2021-04-16T15:19:31Z</time>
      </trkpt>
      <trkpt lat="43.00796" lon="1.10373">
        <ele>394</ele>
        <time>2021-04-16T15:19:38Z</time>
      </trkpt>
      <trkpt lat="43.00812" lon="1.10427">
        <ele>395</ele>
        <time>2021-04-16T15:19:54Z</time>
      </trkpt>
      <trkpt lat="43.00817" lon="1.10429">
        <ele>395</ele>
        <time>2021-04-16T15:19:58Z</time>
      </trkpt>
    </trkseg>
  </trk>
</gpx>